createdAt,value
2023-01-28T00:01:23.645Z,90
2023-01-28T00:03:22.342Z,90
2023-01-28T00:05:22.435Z,90
2023-01-28T00:07:22.357Z,90
2023-01-28T00:09:27.453Z,90
2023-01-28T00:11:22.553Z,90
2023-01-28T00:13:22.369Z,90
2023-01-28T00:15:24.258Z,90
2023-01-28T00:17:22.388Z,90
2023-01-28T00:19:21.732Z,90
2023-01-28T00:21:25.673Z,90
2023-01-28T00:23:21.692Z,90
2023-01-28T00:25:25.591Z,90
2023-01-28T00:27:22.428Z,90
2023-01-28T00:29:26.477Z,90
2023-01-28T00:31:23.767Z,90
2023-01-28T00:33:22.556Z,90
2023-01-28T00:35:19.523Z,90
2023-01-28T00:37:23.954Z,90
2023-01-28T00:39:28.378Z,90
2023-01-28T00:41:23.295Z,90
2023-01-28T00:43:22.382Z,90
2023-01-28T00:45:22.527Z,90
2023-01-28T00:47:25.221Z,90
2023-01-28T00:49:24.361Z,90
2023-01-28T00:51:22.822Z,90
2023-01-28T00:53:25.169Z,90
2023-01-28T00:55:24.130Z,90
2023-01-28T00:57:25.009Z,90
2023-01-28T00:59:22.392Z,90
2023-01-28T01:01:22.739Z,90
2023-01-28T01:03:26.163Z,90
2023-01-28T01:05:25.771Z,90
2023-01-28T01:07:24.669Z,90
2023-01-28T01:09:22.221Z,90
2023-01-28T01:11:22.496Z,90
2023-01-28T01:13:29.737Z,90
2023-01-28T01:15:22.622Z,90
2023-01-28T01:17:22.658Z,90
2023-01-28T01:19:22.621Z,90
2023-01-28T01:21:25.783Z,90
2023-01-28T01:23:23.744Z,90
2023-01-28T01:25:24.578Z,90
2023-01-28T01:27:22.339Z,90
2023-01-28T01:29:19.533Z,90
2023-01-28T01:31:22.472Z,90
2023-01-28T01:33:25.552Z,90
2023-01-28T01:35:22.643Z,90
2023-01-28T01:37:24.055Z,89
2023-01-28T01:39:25.518Z,90
2023-01-28T01:41:22.336Z,90
2023-01-28T01:43:25.696Z,90
2023-01-28T01:45:25.816Z,90
2023-01-28T01:47:25.345Z,90
2023-01-28T01:49:22.032Z,90
2023-01-28T01:51:22.361Z,89
2023-01-28T01:53:25.483Z,89
2023-01-28T01:55:25.592Z,89
2023-01-28T01:57:24.984Z,89
2023-01-28T01:59:22.528Z,89
2023-01-28T02:01:22.356Z,89
2023-01-28T02:03:23.842Z,89
2023-01-28T02:05:22.483Z,89
2023-01-28T02:07:25.618Z,89
2023-01-28T02:09:21.983Z,89
2023-01-28T02:11:22.402Z,90
2023-01-28T02:13:23.315Z,89
2023-01-28T02:15:25.211Z,89
2023-01-28T02:17:22.829Z,90
2023-01-28T02:19:25.068Z,90
2023-01-28T02:21:22.364Z,90
2023-01-28T02:23:22.359Z,90
2023-01-28T02:25:25.615Z,90
2023-01-28T02:27:24.155Z,90
2023-01-28T02:29:24.725Z,90
2023-01-28T02:31:22.745Z,90
2023-01-28T02:33:22.012Z,90
2023-01-28T02:35:22.393Z,90
2023-01-28T02:37:22.409Z,90
2023-01-28T02:39:25.877Z,90
2023-01-28T02:41:24.242Z,90
2023-01-28T02:43:22.412Z,90
2023-01-28T02:45:25.382Z,90
2023-01-28T02:47:25.460Z,90
2023-01-28T02:49:22.435Z,90
2023-01-28T02:51:22.506Z,90
2023-01-28T02:53:25.435Z,90
2023-01-28T02:55:22.438Z,90
2023-01-28T02:57:22.460Z,90
2023-01-28T02:59:24.073Z,90
2023-01-28T03:01:22.654Z,90
2023-01-28T03:03:24.064Z,89
2023-01-28T03:05:22.406Z,89
2023-01-28T03:09:24.477Z,90
2023-01-28T03:11:24.628Z,90
2023-01-28T03:13:25.271Z,89
2023-01-28T03:15:23.664Z,90
2023-01-28T03:17:22.411Z,89
2023-01-28T03:19:25.577Z,89
2023-01-28T03:21:22.372Z,89
2023-01-28T03:23:26.106Z,89
2023-01-28T03:25:25.613Z,89
2023-01-28T03:27:22.323Z,89
2023-01-28T03:29:24.242Z,89
2023-01-28T03:31:22.413Z,89
2023-01-28T03:33:22.416Z,89
2023-01-28T03:35:22.448Z,89
2023-01-28T03:37:22.380Z,89
2023-01-28T03:39:22.548Z,89
2023-01-28T03:41:24.359Z,89
2023-01-28T03:43:25.317Z,89
2023-01-28T03:45:22.431Z,89
2023-01-28T03:47:23.229Z,89
2023-01-28T03:49:21.836Z,89
2023-01-28T03:51:22.686Z,89
2023-01-28T03:53:23.187Z,89
2023-01-28T03:55:22.421Z,89
2023-01-28T03:57:22.406Z,89
2023-01-28T03:59:22.749Z,89
2023-01-28T04:01:24.640Z,89
2023-01-28T04:03:22.740Z,89
2023-01-28T04:05:24.071Z,89
2023-01-28T04:07:24.193Z,89
2023-01-28T04:09:23.786Z,89
2023-01-28T04:11:22.440Z,89
2023-01-28T04:13:22.407Z,89
2023-01-28T04:15:22.449Z,89
2023-01-28T04:19:22.427Z,89
2023-01-28T04:21:20.940Z,89
2023-01-28T04:23:25.525Z,89
2023-01-28T04:25:24.540Z,89
2023-01-28T04:27:24.556Z,89
2023-01-28T04:29:25.621Z,89
2023-01-28T04:31:22.779Z,89
2023-01-28T04:33:22.681Z,89
2023-01-28T04:35:22.423Z,89
2023-01-28T04:37:22.420Z,89
2023-01-28T04:39:23.824Z,89
2023-01-28T04:41:22.380Z,89
2023-01-28T04:43:24.628Z,89
2023-01-28T04:45:22.549Z,89
2023-01-28T04:47:22.436Z,89
2023-01-28T04:49:22.137Z,89
2023-01-28T04:51:22.194Z,89
2023-01-28T04:53:26.300Z,89
2023-01-28T04:55:22.600Z,89
2023-01-28T04:57:20.445Z,89
2023-01-28T04:59:22.959Z,89
2023-01-28T05:01:25.382Z,89
2023-01-28T05:03:23.681Z,89
2023-01-28T05:05:22.821Z,89
2023-01-28T05:07:24.524Z,89
2023-01-28T05:09:22.362Z,89
2023-01-28T05:11:25.583Z,89
2023-01-28T05:13:24.603Z,89
2023-01-28T05:15:22.771Z,89
2023-01-28T05:17:25.352Z,89
2023-01-28T05:19:29.309Z,89
2023-01-28T05:21:22.417Z,89
2023-01-28T05:23:22.627Z,89
2023-01-28T05:25:25.669Z,89
2023-01-28T05:27:22.756Z,89
2023-01-28T05:29:25.819Z,89
2023-01-28T05:31:22.797Z,89
2023-01-28T05:33:22.561Z,89
2023-01-28T05:35:23.840Z,89
2023-01-28T05:37:24.084Z,90
2023-01-28T05:39:22.458Z,89
2023-01-28T05:41:32.610Z,89
2023-01-28T05:43:25.534Z,90
2023-01-28T05:45:22.481Z,90
2023-01-28T05:47:23.747Z,89
2023-01-28T05:49:22.405Z,90
2023-01-28T05:51:20.559Z,90
2023-01-28T05:53:22.773Z,89
2023-01-28T05:55:25.472Z,89
2023-01-28T05:57:25.270Z,89
2023-01-28T05:59:25.514Z,89
2023-01-28T06:01:22.466Z,89
2023-01-28T06:03:22.431Z,89
2023-01-28T06:05:22.587Z,89
2023-01-28T06:07:23.867Z,89
2023-01-28T06:09:22.534Z,89
2023-01-28T06:11:22.389Z,89
2023-01-28T06:13:24.759Z,89
2023-01-28T06:15:22.508Z,89
2023-01-28T06:17:25.659Z,89
2023-01-28T06:19:22.834Z,89
2023-01-28T06:21:22.398Z,89
2023-01-28T06:23:24.030Z,89
2023-01-28T06:25:24.225Z,89
2023-01-28T06:27:23.579Z,89
2023-01-28T06:29:25.566Z,89
2023-01-28T06:31:21.947Z,89
2023-01-28T06:33:25.351Z,89
2023-01-28T06:35:25.597Z,89
2023-01-28T06:37:26.174Z,89
2023-01-28T06:39:25.543Z,89
2023-01-28T06:41:22.270Z,89
2023-01-28T06:43:24.106Z,89
2023-01-28T06:45:22.556Z,89
2023-01-28T06:47:20.571Z,89
2023-01-28T06:49:29.470Z,89
2023-01-28T06:51:23.809Z,89
2023-01-28T06:53:22.812Z,89
2023-01-28T06:55:24.693Z,89
2023-01-28T06:57:22.571Z,89
2023-01-28T06:59:22.540Z,89
2023-01-28T07:03:24.089Z,89
2023-01-28T07:05:24.188Z,89
2023-01-28T07:07:22.492Z,89
2023-01-28T07:09:25.582Z,89
2023-01-28T07:11:22.382Z,89
2023-01-28T07:13:21.846Z,89
2023-01-28T07:15:23.493Z,89
2023-01-28T07:17:25.819Z,89
2023-01-28T07:19:24.529Z,89
2023-01-28T07:21:25.167Z,89
2023-01-28T07:23:26.090Z,89
2023-01-28T07:25:22.456Z,89
2023-01-28T07:27:22.463Z,89
2023-01-28T07:29:22.486Z,89
2023-01-28T07:31:22.584Z,89
2023-01-28T07:33:29.584Z,89
2023-01-28T07:35:22.401Z,89
2023-01-28T07:37:29.523Z,89
2023-01-28T07:39:23.324Z,89
2023-01-28T07:41:20.982Z,89
2023-01-28T07:43:22.403Z,89
2023-01-28T07:45:20.932Z,89
2023-01-28T07:47:24.510Z,89
2023-01-28T07:49:21.786Z,89
2023-01-28T07:51:24.512Z,89
2023-01-28T07:53:22.424Z,89
2023-01-28T07:55:22.489Z,89
2023-01-28T07:57:26.091Z,89
2023-01-28T07:59:23.477Z,89
2023-01-28T08:01:28.707Z,89
2023-01-28T08:03:22.411Z,89
2023-01-28T08:05:22.667Z,89
2023-01-28T08:07:22.696Z,89
2023-01-28T08:09:22.750Z,89
2023-01-28T08:11:22.359Z,89
2023-01-28T08:13:22.413Z,89
2023-01-28T08:15:23.936Z,89
2023-01-28T08:17:22.533Z,89
2023-01-28T08:19:22.392Z,89
2023-01-28T08:23:24.313Z,89
2023-01-28T08:25:23.871Z,89
2023-01-28T08:27:22.156Z,89
2023-01-28T08:29:22.587Z,89
2023-01-28T08:31:25.401Z,89
2023-01-28T08:33:22.392Z,88
2023-01-28T08:35:26.134Z,88
2023-01-28T08:37:22.045Z,88
2023-01-28T08:39:24.915Z,88
2023-01-28T08:41:29.429Z,88
2023-01-28T08:43:22.458Z,88
2023-01-28T08:45:27.747Z,88
2023-01-28T08:47:22.566Z,88
2023-01-28T08:49:24.953Z,88
2023-01-28T08:51:26.323Z,88
2023-01-28T08:53:22.421Z,88
2023-01-28T08:55:22.649Z,87
2023-01-28T08:57:22.188Z,87
2023-01-28T08:59:22.429Z,87
2023-01-28T09:01:19.662Z,87
2023-01-28T09:03:22.431Z,87
2023-01-28T09:05:25.026Z,87
2023-01-28T09:07:26.404Z,87
2023-01-28T09:09:20.569Z,87
2023-01-28T09:11:25.648Z,86
2023-01-28T09:13:25.446Z,86
2023-01-28T09:15:25.670Z,86
2023-01-28T09:17:25.281Z,85
2023-01-28T09:21:22.392Z,85
2023-01-28T09:23:26.563Z,85
2023-01-28T09:25:22.885Z,85
2023-01-28T09:27:22.487Z,85
2023-01-28T09:29:29.117Z,85
2023-01-28T09:31:26.057Z,85
2023-01-28T09:33:25.618Z,84
2023-01-28T09:35:22.512Z,84
2023-01-28T09:37:25.422Z,85
2023-01-28T09:39:25.852Z,85
2023-01-28T09:41:24.978Z,85
2023-01-28T09:43:22.566Z,84
2023-01-28T09:45:23.011Z,85
2023-01-28T09:47:25.725Z,84
2023-01-28T09:49:23.923Z,85
2023-01-28T09:51:24.005Z,85
2023-01-28T09:53:25.031Z,84
2023-01-28T09:55:24.490Z,84
2023-01-28T09:57:23.441Z,83
2023-01-28T09:59:25.475Z,84
2023-01-28T10:01:26.745Z,83
2023-01-28T10:03:24.236Z,83
2023-01-28T10:05:24.464Z,83
2023-01-28T10:07:25.803Z,84
2023-01-28T10:09:25.592Z,83
2023-01-28T10:11:24.168Z,83
2023-01-28T10:13:23.650Z,84
2023-01-28T10:15:24.956Z,84
2023-01-28T10:19:22.399Z,84
2023-01-28T10:21:25.536Z,84
2023-01-28T10:23:24.628Z,85
2023-01-28T10:25:24.123Z,85
2023-01-28T10:27:20.513Z,85
2023-01-28T10:29:28.647Z,85
2023-01-28T10:31:26.467Z,84
2023-01-28T10:33:23.753Z,84
2023-01-28T10:35:25.584Z,85
2023-01-28T10:37:23.506Z,84
2023-01-28T10:39:24.236Z,84
2023-01-28T10:41:25.275Z,84
2023-01-28T10:43:26.277Z,84
2023-01-28T10:45:24.785Z,84
2023-01-28T10:47:24.844Z,84
2023-01-28T10:49:25.051Z,84
2023-01-28T10:51:24.118Z,84
2023-01-28T10:53:27.126Z,84
2023-01-28T10:55:22.432Z,84
2023-01-28T10:57:25.615Z,84
2023-01-28T10:59:22.477Z,84
2023-01-28T11:01:25.844Z,85
2023-01-28T11:03:23.259Z,84
2023-01-28T11:05:25.105Z,84
2023-01-28T11:07:25.379Z,83
2023-01-28T11:09:25.721Z,83
2023-01-28T11:11:24.185Z,82
2023-01-28T11:13:22.377Z,81
2023-01-28T11:15:22.451Z,81
2023-01-28T11:17:23.303Z,81
2023-01-28T11:19:21.240Z,81
2023-01-28T11:21:22.427Z,81
2023-01-28T11:23:22.445Z,81
2023-01-28T11:25:22.652Z,81
2023-01-28T11:27:23.413Z,82
2023-01-28T11:29:23.826Z,82
2023-01-28T11:31:24.913Z,83
2023-01-28T11:33:25.043Z,82
2023-01-28T11:35:25.591Z,83
2023-01-28T11:37:25.284Z,83
2023-01-28T11:39:22.477Z,83
2023-01-28T11:41:27.244Z,83
2023-01-28T11:43:22.418Z,83
2023-01-28T11:45:24.950Z,83
2023-01-28T11:47:24.011Z,83
2023-01-28T11:49:25.987Z,83
2023-01-28T11:51:25.822Z,84
2023-01-28T11:53:22.593Z,83
2023-01-28T11:55:25.619Z,83
2023-01-28T11:57:22.581Z,83
2023-01-28T11:59:24.448Z,83
2023-01-28T12:01:25.499Z,83
2023-01-28T12:03:23.166Z,84
2023-01-28T12:05:28.673Z,84
2023-01-28T12:07:25.691Z,84
2023-01-28T12:09:27.148Z,84
2023-01-28T12:11:22.499Z,84
2023-01-28T12:13:22.741Z,84
2023-01-28T12:15:25.830Z,84
2023-01-28T12:17:26.422Z,84
2023-01-28T12:19:22.638Z,84
2023-01-28T12:21:24.177Z,84
2023-01-28T12:23:22.306Z,84
2023-01-28T12:25:24.124Z,85
2023-01-28T12:27:25.086Z,84
2023-01-28T12:29:22.680Z,84
2023-01-28T12:31:22.668Z,85
2023-01-28T12:33:22.496Z,85
2023-01-28T12:35:22.495Z,85
2023-01-28T12:37:22.016Z,85
2023-01-28T12:39:25.520Z,85
2023-01-28T12:41:22.422Z,85
2023-01-28T12:43:24.548Z,85
2023-01-28T12:45:25.007Z,85
2023-01-28T12:47:22.484Z,86
2023-01-28T12:49:23.894Z,86
2023-01-28T12:51:25.396Z,86
2023-01-28T12:53:25.069Z,86
2023-01-28T12:55:27.290Z,86
2023-01-28T12:57:22.441Z,86
2023-01-28T12:59:26.210Z,86
2023-01-28T13:01:22.609Z,86
2023-01-28T13:03:22.453Z,86
2023-01-28T13:05:22.384Z,86
2023-01-28T13:07:27.117Z,86
2023-01-28T13:09:23.203Z,87
2023-01-28T13:11:24.522Z,87
2023-01-28T13:13:25.609Z,87
2023-01-28T13:15:22.499Z,87
2023-01-28T13:17:22.414Z,87
2023-01-28T13:21:25.313Z,87
2023-01-28T13:23:25.570Z,87
2023-01-28T13:25:25.160Z,87
2023-01-28T13:27:22.721Z,87
2023-01-28T13:29:25.435Z,87
2023-01-28T13:31:26.124Z,87
2023-01-28T13:33:22.215Z,87
2023-01-28T13:35:25.615Z,87
2023-01-28T13:37:25.866Z,87
2023-01-28T13:39:30.361Z,87
2023-01-28T13:41:22.447Z,87
2023-01-28T13:43:25.214Z,87
2023-01-28T13:45:25.531Z,87
2023-01-28T13:47:25.868Z,87
2023-01-28T13:49:24.936Z,87
2023-01-28T13:51:22.486Z,87
2023-01-28T13:53:22.524Z,87
2023-01-28T13:55:37.337Z,87
2023-01-28T13:57:22.076Z,87
2023-01-28T13:59:25.527Z,87
2023-01-28T14:01:22.999Z,87
2023-01-28T14:03:23.349Z,87
2023-01-28T14:05:25.045Z,87
2023-01-28T14:09:25.371Z,87
2023-01-28T14:11:25.546Z,87
2023-01-28T14:13:23.774Z,87
2023-01-28T14:15:22.750Z,87
2023-01-28T14:17:25.327Z,87
2023-01-28T14:19:25.127Z,87
2023-01-28T14:21:25.736Z,87
2023-01-28T14:23:22.781Z,87
2023-01-28T14:25:25.589Z,87
2023-01-28T14:27:25.409Z,87
2023-01-28T14:29:22.432Z,87
2023-01-28T14:31:20.746Z,87
2023-01-28T14:33:22.596Z,87
2023-01-28T14:35:22.402Z,87
2023-01-28T14:37:22.413Z,87
2023-01-28T14:39:22.050Z,87
2023-01-28T14:41:21.019Z,87
2023-01-28T14:43:23.464Z,87
2023-01-28T14:45:25.458Z,87
2023-01-28T14:47:22.118Z,88
2023-01-28T14:49:25.591Z,88
2023-01-28T14:51:23.311Z,88
2023-01-28T14:53:22.020Z,88
2023-01-28T14:55:24.158Z,88
2023-01-28T14:57:22.504Z,88
2023-01-28T14:59:25.557Z,87
2023-01-28T15:01:24.758Z,87
2023-01-28T15:03:25.044Z,87
2023-01-28T15:05:24.493Z,87
2023-01-28T15:07:25.048Z,87
2023-01-28T15:09:23.303Z,88
2023-01-28T15:11:25.086Z,88
2023-01-28T15:13:24.717Z,88
2023-01-28T15:15:22.711Z,88
2023-01-28T15:17:24.976Z,88
2023-01-28T15:19:24.681Z,88
2023-01-28T15:21:21.001Z,88
2023-01-28T15:23:24.147Z,88
2023-01-28T15:25:22.478Z,88
2023-01-28T15:27:24.782Z,88
2023-01-28T15:31:22.602Z,88
2023-01-28T15:33:28.699Z,89
2023-01-28T15:35:24.133Z,89
2023-01-28T15:37:22.580Z,89
2023-01-28T15:39:28.778Z,89
2023-01-28T15:41:25.938Z,89
2023-01-28T15:43:22.538Z,89
2023-01-28T15:45:22.570Z,89
2023-01-28T15:47:24.218Z,89
2023-01-28T15:49:25.088Z,89
2023-01-28T15:51:25.570Z,89
2023-01-28T15:53:21.070Z,89
2023-01-28T15:55:25.562Z,89
2023-01-28T15:57:22.508Z,89
2023-01-28T16:01:22.426Z,90
2023-01-28T16:03:24.311Z,90
2023-01-28T16:05:25.891Z,90
2023-01-28T16:07:22.008Z,90
2023-01-28T16:09:22.363Z,90
2023-01-28T16:11:25.231Z,90
2023-01-28T16:13:22.443Z,90
2023-01-28T16:15:22.763Z,90
2023-01-28T16:17:24.641Z,90
2023-01-28T16:19:22.645Z,90
2023-01-28T16:21:25.628Z,90
2023-01-28T16:23:25.681Z,90
2023-01-28T16:25:25.673Z,90
2023-01-28T16:27:23.336Z,90
2023-01-28T16:29:25.643Z,90
2023-01-28T16:31:25.621Z,90
2023-01-28T16:33:25.135Z,90
2023-01-28T16:35:38.132Z,90
2023-01-28T16:37:24.494Z,90
2023-01-28T16:39:22.185Z,90
2023-01-28T16:41:22.805Z,90
2023-01-28T16:43:22.622Z,90
2023-01-28T16:45:23.465Z,91
2023-01-28T16:47:24.398Z,91
2023-01-28T16:49:25.995Z,90
2023-01-28T16:51:24.204Z,91
2023-01-28T16:53:22.541Z,90
2023-01-28T16:55:25.224Z,91
2023-01-28T16:57:22.433Z,90
2023-01-28T16:59:19.631Z,90
2023-01-28T17:01:25.033Z,90
2023-01-28T17:03:22.643Z,90
2023-01-28T17:05:28.501Z,90
2023-01-28T17:07:25.574Z,90
2023-01-28T17:09:22.657Z,90
2023-01-28T17:11:25.027Z,90
2023-01-28T17:13:22.258Z,90
2023-01-28T17:15:22.504Z,90
2023-01-28T17:19:22.497Z,90
2023-01-28T17:21:21.088Z,90
2023-01-28T17:23:22.436Z,90
2023-01-28T17:25:25.738Z,90
2023-01-28T17:27:22.269Z,90
2023-01-28T17:29:21.030Z,90
2023-01-28T17:31:22.849Z,90
2023-01-28T17:35:22.333Z,90
2023-01-28T17:37:23.881Z,90
2023-01-28T17:39:25.818Z,90
2023-01-28T17:41:22.536Z,90
2023-01-28T17:43:22.432Z,90
2023-01-28T17:45:22.214Z,90
2023-01-28T17:47:19.274Z,90
2023-01-28T17:51:22.098Z,90
2023-01-28T17:53:22.470Z,90
2023-01-28T17:55:25.631Z,90
2023-01-28T17:57:25.605Z,90
2023-01-28T17:59:26.012Z,90
2023-01-28T18:01:22.534Z,90
2023-01-28T18:03:24.712Z,90
2023-01-28T18:05:21.338Z,90
2023-01-28T18:07:22.539Z,90
2023-01-28T18:09:24.948Z,90
2023-01-28T18:11:19.650Z,90
2023-01-28T18:13:25.669Z,90
2023-01-28T18:15:26.358Z,90
2023-01-28T18:17:25.700Z,90
2023-01-28T18:19:22.629Z,90
2023-01-28T18:21:22.612Z,90
2023-01-28T18:23:22.290Z,90
2023-01-28T18:25:25.707Z,90
2023-01-28T18:27:22.681Z,90
2023-01-28T18:29:23.763Z,90
2023-01-28T18:31:22.290Z,90
2023-01-28T18:33:35.764Z,90
2023-01-28T18:35:37.917Z,90
2023-01-28T18:37:35.544Z,90
2023-01-28T18:39:35.973Z,90
2023-01-28T18:41:34.575Z,90
2023-01-28T18:43:34.676Z,90
2023-01-28T18:45:35.779Z,90
2023-01-28T18:49:33.300Z,90
2023-01-28T18:51:35.611Z,90
2023-01-28T18:53:35.908Z,90
2023-01-28T18:55:37.276Z,90
2023-01-28T18:57:34.605Z,90
2023-01-28T18:59:37.653Z,90
2023-01-28T19:01:37.367Z,90
2023-01-28T19:03:37.703Z,90
2023-01-28T19:05:36.406Z,90
2023-01-28T19:07:34.587Z,90
2023-01-28T19:09:31.658Z,90
2023-01-28T19:11:41.457Z,90
2023-01-28T19:13:35.088Z,90
2023-01-28T19:15:37.676Z,90
2023-01-28T19:17:35.578Z,90
2023-01-28T19:19:34.627Z,90
2023-01-28T19:21:38.065Z,90
2023-01-28T19:23:49.069Z,90
2023-01-28T19:25:41.319Z,90
2023-01-28T19:27:35.548Z,90
2023-01-28T19:29:34.713Z,90
2023-01-28T19:31:34.327Z,90
2023-01-28T19:33:37.706Z,90
2023-01-28T19:35:36.466Z,90
2023-01-28T19:37:34.593Z,90
2023-01-28T19:39:34.345Z,90
2023-01-28T19:41:36.956Z,90
2023-01-28T19:43:36.172Z,90
2023-01-28T19:45:38.265Z,90
2023-01-28T19:47:35.890Z,90
2023-01-28T19:49:33.330Z,90
2023-01-28T19:51:37.649Z,90
2023-01-28T19:53:36.176Z,90
2023-01-28T19:57:36.635Z,90
2023-01-28T19:59:34.547Z,90
2023-01-28T20:01:37.615Z,90
2023-01-28T20:03:36.877Z,90
2023-01-28T20:05:35.469Z,90
2023-01-28T20:07:37.977Z,90
2023-01-28T20:09:35.046Z,90
2023-01-28T20:11:36.671Z,90
2023-01-28T20:13:39.124Z,90
2023-01-28T20:15:35.905Z,90
2023-01-28T20:17:37.808Z,90
2023-01-28T20:19:39.456Z,90
2023-01-28T20:21:41.485Z,90
2023-01-28T20:23:34.893Z,90
2023-01-28T20:25:36.291Z,90
2023-01-28T20:27:37.571Z,90
2023-01-28T20:31:35.319Z,90
2023-01-28T20:33:34.667Z,90
2023-01-28T20:35:37.657Z,90
2023-01-28T20:37:33.215Z,90
2023-01-28T20:39:35.097Z,90
2023-01-28T20:41:39.530Z,90
2023-01-28T20:43:38.570Z,90
2023-01-28T20:45:37.604Z,90
2023-01-28T20:47:36.372Z,90
2023-01-28T20:49:39.130Z,90
2023-01-28T20:51:37.052Z,90
2023-01-28T20:53:34.760Z,90
2023-01-28T20:55:36.403Z,90
2023-01-28T20:57:34.689Z,90
2023-01-28T20:59:35.776Z,90
2023-01-28T21:01:37.443Z,90
2023-01-28T21:03:37.601Z,90
2023-01-28T21:05:36.796Z,90
2023-01-28T21:07:35.321Z,90
2023-01-28T21:09:38.669Z,90
2023-01-28T21:11:38.373Z,90
2023-01-28T21:13:37.709Z,90
2023-01-28T21:15:34.798Z,90
2023-01-28T21:17:37.978Z,90
2023-01-28T21:19:35.035Z,90
2023-01-28T21:21:35.854Z,90
2023-01-28T21:23:32.039Z,90
2023-01-28T21:25:35.083Z,90
2023-01-28T21:27:36.651Z,90
2023-01-28T21:29:36.131Z,90
2023-01-28T21:31:34.855Z,90
2023-01-28T21:33:35.132Z,90
2023-01-28T21:35:36.344Z,90
2023-01-28T21:37:35.420Z,90
2023-01-28T21:39:39.143Z,90
2023-01-28T21:41:34.982Z,90
2023-01-28T21:43:35.319Z,89
2023-01-28T21:45:36.932Z,89
2023-01-28T21:47:35.004Z,89
2023-01-28T21:49:35.199Z,89
2023-01-28T21:51:36.881Z,89
2023-01-28T21:53:35.151Z,89
2023-01-28T21:55:34.955Z,89
2023-01-28T21:57:39.073Z,89
2023-01-28T21:59:38.950Z,89
2023-01-28T22:01:38.384Z,89
2023-01-28T22:03:34.743Z,89
2023-01-28T22:05:35.388Z,89
2023-01-28T22:07:35.087Z,89
2023-01-28T22:09:35.192Z,89
2023-01-28T22:11:34.863Z,89
2023-01-28T22:13:35.692Z,89
2023-01-28T22:15:37.797Z,89
2023-01-28T22:17:36.423Z,89
2023-01-28T22:19:37.164Z,89
2023-01-28T22:21:35.037Z,89
2023-01-28T22:23:36.678Z,89
2023-01-28T22:25:41.362Z,89
2023-01-28T22:27:35.248Z,89
2023-01-28T22:29:35.122Z,89
2023-01-28T22:31:38.571Z,89
2023-01-28T22:33:38.511Z,89
2023-01-28T22:35:35.149Z,89
2023-01-28T22:37:38.803Z,89
2023-01-28T22:39:35.266Z,89
2023-01-28T22:41:38.165Z,89
2023-01-28T22:43:35.323Z,89
2023-01-28T22:45:38.293Z,89
2023-01-28T22:49:36.161Z,89
2023-01-28T22:53:33.697Z,89
2023-01-28T23:00:48.090Z,89
2023-01-28T23:02:43.248Z,89
2023-01-28T23:04:45.283Z,89
2023-01-28T23:06:45.456Z,89
2023-01-28T23:08:41.886Z,89
2023-01-28T23:10:44.828Z,89
2023-01-28T23:12:45.247Z,89
2023-01-28T23:14:47.795Z,89
2023-01-28T23:16:45.290Z,89
2023-01-28T23:20:43.029Z,89
2023-01-28T23:24:43.813Z,89
2023-01-28T23:26:44.294Z,89
2023-01-28T23:28:44.968Z,89
2023-01-28T23:30:44.616Z,89
2023-01-28T23:32:45.490Z,89
2023-01-28T23:34:44.865Z,89
2023-01-28T23:36:48.646Z,89
2023-01-28T23:38:42.238Z,89
2023-01-28T23:40:45.111Z,89
2023-01-28T23:44:45.465Z,89
2023-01-28T23:46:44.688Z,89
2023-01-28T23:48:43.932Z,89
2023-01-28T23:50:45.100Z,89
2023-01-28T23:52:44.800Z,89
2023-01-28T23:54:44.809Z,89
2023-01-28T23:56:46.500Z,89
